METAR stanice u blizini

 

LYNI - Nis, Yugoslavia
Distance from station: JZ 40km
Ažurirano: 10/12/2019 05:00
Vedro
Vedro
 Pravac vetra varies
Vetar: varies 2 km/h
Temperatura: 3°C
Tačka rose: 2°C
Vlažnost: 93%
Pritisak: 1010 hPa
Pregled: Vedro
Vidljivost: greater than 10 km
2019/12/10 04:00 LYNI 100400Z VRB01KT CAVOK 03/02 Q1010 NOSIG
LYKV - Kraljevo, Yugoslavia
Distance from station: ZSZ 136km
Ažurirano: 10/12/2019 05:00
Mist, Delimično oblačno
Mist, Delimično oblačno
 Pravac vetra ISI
Vetar: ISI 7 km/h
Temperatura: 4°C
Osećaj hladnoće: 2°C
Tačka rose: 4°C
Vlažnost: 100%
Pritisak: 1009 hPa
Pregled: Mist
Oblaci: Delimično oblačno
Vidljivost: 5 km
2019/12/10 04:00 LYKV 100400Z 07004KT 5000 BR NSC 04/04 Q1009 NOSIG
LBSF - Sofia (observato, Bulgaria
Distance from station: JI 138km
Ažurirano: 10/12/2019 05:00
Freezing fog, Oblačno
Freezing fog, Oblačno
 Pravac vetra varies
Vetar: varies 4 km/h
Temperatura: -3°C
Tačka rose: -3°C
Vlažnost: 100%
Pritisak: 1011 hPa
Pregled: Freezing Fog
Oblaci: Oblačno
Vidljivost: 0 km
Cloud details: Oblačno 61 m
2019/12/10 04:00 LBSF 100400Z VRB02KT 0400 R27/0650U FZFG VV002 M03/M03 Q1011 NOSIG
 
BKPR - Prishtina, Yugoslavia
Distance from station: JZ 147km
Ažurirano: 10/12/2019 05:00
Mist, Pretežno oblačno
Mist, Pretežno oblačno
 Pravac vetra varies
Vetar: varies 6 km/h
Temperatura: 3°C
Tačka rose: 2°C
Vlažnost: 93%
Pritisak: 1010 hPa
Pregled: Mist
Oblaci: Pretežno oblačno
Vidljivost: 5 km
Cloud details: Delimično oblačno 305 m
Pretežno oblačno 1524 m
2019/12/10 04:00 BKPR 100400Z VRB03KT 5000 BR SCT010 BKN050 03/02 Q1010 NOSIG RMK 17010095
LRCV - Craiova, Romania
Distance from station: SI 154km
Ažurirano: 10/12/2019 05:00
Delimično oblačno
Delimično oblačno
 Pravac vetra S
Vetar: S 7 km/h
Temperatura: 1°C
Osećaj hladnoće: -2°C
Tačka rose: 0°C
Vlažnost: 93%
Pritisak: 1010 hPa
Oblaci: Delimično oblačno
Vidljivost: 7 km
2019/12/10 04:00 LRCV 100400Z 01004KT 7000 NSC 01/M00 Q1010
LWSK - Skopje/Petrovac, Macedonia
Distance from station: JJZ 185km
Ažurirano: 10/12/2019 05:00
Mist, Oblačno
Mist, Oblačno
 Pravac vetra calm
Vetar: Tišina
Temperatura: 4°C
Tačka rose: 4°C
Vlažnost: 100%
Pritisak: 1012 hPa
Pregled: Mist
Oblaci: Oblačno
Vidljivost: 3 km
Cloud details: Oblačno 244 m
2019/12/10 04:00 LWSK 100400Z 00000KT 3100 BR OVC008 04/04 Q1012 NOSIG
 
LYVR - Vrsac, Yugoslavia
Distance from station: SSZ 189km
Ažurirano: 10/12/2019 05:00
Vedro
Vedro
 Pravac vetra JI
Vetar: JI 33 km/h
Temperatura: 11°C
Tačka rose: 1°C
Vlažnost: 50%
Pritisak: 1008 hPa
Pregled: Vedro
Vidljivost: greater than 10 km
2019/12/10 04:00 LYVR 100400Z AUTO 14018KT CAVOK 11/01 Q1008
LYUZ - Uzice-Ponikve, Yugoslavia
Distance from station: Z 207km
Ažurirano: 10/12/2019 05:00
Oblačno
Oblačno
 Pravac vetra calm
Vetar: Tišina
Temperatura: 5°C
Tačka rose: 1°C
Vlažnost: 76%
Pritisak: 1008 hPa
Oblaci: Oblačno
Vidljivost: 10 km
Cloud details: Oblačno 1311 m
2019/12/10 04:00 LYUZ 100400Z AUTO 00000KT 9999 OVC043/// 05/01 Q1008
LYBE - Belgrade/Surcin, Yugoslavia
Distance from station: SZ 209km
Ažurirano: 10/12/2019 05:00
Vedro
Vedro
 Pravac vetra varies
Vetar: varies 4 km/h
Temperatura: 5°C
Tačka rose: 4°C
Vlažnost: 93%
Pritisak: 1009 hPa
Pregled: Vedro
Vidljivost: greater than 10 km
2019/12/10 04:00 LYBE 100400Z VRB02KT CAVOK 05/04 Q1009 NOSIG
 
LYBT - Batajnica, Yugoslavia
Distance from station: SZ 219km
Ažurirano: 10/12/2019 05:00
Vedro
Vedro
 Pravac vetra calm
Vetar: Tišina
Temperatura: 4°C
Tačka rose: 4°C
Vlažnost: 100%
Pritisak: 1008 hPa
Pregled: Vedro
Vidljivost: greater than 10 km
2019/12/10 04:00 LYBT 100400Z 00000KT CAVOK 04/04 Q1008 NOSIG
LRTR - Timisoara/Giarma, Romania
Distance from station: SSZ 260km
Ažurirano: 10/12/2019 05:00
Vedro
Vedro
 Pravac vetra IJI
Vetar: IJI 13 km/h
Temperatura: 5°C
Osećaj hladnoće: 2°C
Tačka rose: 3°C
Vlažnost: 87%
Pritisak: 1009 hPa
Pregled: Vedro
Vidljivost: greater than 10 km
2019/12/10 04:00 LRTR 100400Z 12007KT CAVOK 05/03 Q1009 NOSIG
LBPD - Plovdiv, Bulgaria
Distance from station: JI 263km
Ažurirano: 10/12/2019 05:00
Vedro
Vedro
 Pravac vetra SZ
Vetar: SZ 6 km/h
Temperatura: -1°C
Tačka rose: -2°C
Vlažnost: 93%
Pritisak: 1012 hPa
Oblaci: Vedro
Vidljivost: 6 km
2019/12/10 04:00 LBPD 100400Z AUTO 31003KT 6000 NCD M01/M02 Q1012 TEMPO 3000 BR
 
LYPG - Podgorica(Titogr, Yugoslavia
Distance from station: ZJZ 278km
Ažurirano: 10/12/2019 05:00
Padavine, Mist, Oblačno
Padavine, Mist, Oblačno
 Pravac vetra SZ
Vetar: SZ 6 km/h
Temperatura: 9°C
Tačka rose: 9°C
Vlažnost: 100%
Pritisak: 1008 hPa
Pregled: Padavine, Mist
Oblaci: Oblačno
Vidljivost: 4 km
Cloud details: Pretežno oblačno 1036 m
Oblačno 2134 m
2019/12/10 04:00 LYPG 100400Z 32003KT 4000 RA BR BKN034 OVC070 09/09 Q1008 NOSIG
LBGO - Gorna Orechovist, Bulgaria
Distance from station: I 285km
Ažurirano: 10/12/2019 05:00
Mist, Vedro
Mist, Vedro
 Pravac vetra calm
Vetar: Tišina
Temperatura: -2°C
Tačka rose: -2°C
Vlažnost: 100%
Pritisak: 1011 hPa
Pregled: Mist
Oblaci: Vedro
Vidljivost: 5 km
2019/12/10 04:00 LBGO 100400Z AUTO 00000KT 4700 BR NCD M02/M02 Q1011 TEMPO 0600 FZFG
LRSB - Sibiu/Turnisor, Romania
Distance from station: SSI 286km
Ažurirano: 10/12/2019 05:00
Delimično oblačno
Delimično oblačno
 Pravac vetra IJI
Vetar: IJI 7 km/h
Temperatura: -3°C
Osećaj hladnoće: -6°C
Tačka rose: -3°C
Vlažnost: 100%
Pritisak: 1011 hPa
Oblaci: Delimično oblačno
Vidljivost: 7 km
2019/12/10 04:00 LRSB 100400Z 12004KT 7000 NSC M03/M03 Q1011
 
LWOH - Ohrid, Macedonia
Distance from station: JJZ 292km
Ažurirano: 09/12/2019 21:00
NOT Current
Drizzle, Pretežno oblačno
Drizzle, Pretežno oblačno
 Pravac vetra SZ
Vetar: SZ 6 km/h
Temperatura: 5°C
Tačka rose: 3°C
Vlažnost: 87%
Pritisak: 1011 hPa
Pregled: Drizzle
Oblaci: Pretežno oblačno
Vidljivost: 10 km
Cloud details: Few Clouds 488 m
Pretežno oblačno 1219 m
2019/12/09 20:00 LWOH 092000Z 31003KT 9999 DZ FEW016 BKN040 05/03 Q1011
LQTZ - Tuzla, Yugoslavia
Distance from station: ZSZ 298km
Ažurirano: 10/12/2019 05:00
Slaba kiša, Pretežno oblačno
Slaba kiša, Pretežno oblačno
 Pravac vetra ZSZ
Vetar: ZSZ 9 km/h
Temperatura: 7°C
Osećaj hladnoće: 6°C
Tačka rose: 7°C
Vlažnost: 100%
Pritisak: 1009 hPa
Pregled: Slaba kiša
Oblaci: Pretežno oblačno
Vidljivost: 7 km
Cloud details: Pretežno oblačno 1067 m
2019/12/10 04:00 LQTZ 100400Z 29005KT 7000 -RA BKN035 07/07 Q1009
LRAR - Arad, Romania
Distance from station: SSZ 301km
Ažurirano: 10/12/2019 05:00
Vedro
Vedro
 Pravac vetra JI
Vetar: JI 11 km/h
Temperatura: 7°C
Osećaj hladnoće: 5°C
Tačka rose: 3°C
Vlažnost: 76%
Pritisak: 1009 hPa
Pregled: Vedro
Vidljivost: greater than 10 km
2019/12/10 04:00 LRAR 100400Z 13006KT CAVOK 07/03 Q1009
 
LYTV - Tivat, Yugoslavia
Distance from station: ZJZ 315km
Ažurirano: 10/12/2019 05:00
Slaba kiša, Pretežno oblačno
Slaba kiša, Pretežno oblačno
 Pravac vetra varies
Vetar: varies 7 km/h
Temperatura: 10°C
Osećaj hladnoće: 9°C
Tačka rose: 10°C
Vlažnost: 100%
Pritisak: 1007 hPa
Pregled: Slaba kiša
Oblaci: Pretežno oblačno
Vidljivost: 10 km
Cloud details: Few Clouds 914 m
Delimično oblačno 1219 m
Pretežno oblačno 2438 m
2019/12/10 04:00 LYTV 100400Z VRB04KT 9999 -RA FEW030TCU SCT040 BKN080 10/10 Q1007 RETS
LATI - Tirana, Albania
Distance from station: JZ 316km
Ažurirano: 10/12/2019 05:20
Oblačno
Oblačno
 Pravac vetra J
Vetar: J 9 km/h
Temperatura: 11°C
Tačka rose: 9°C
Vlažnost: 88%
Pritisak: 1007 hPa
Oblaci: Oblačno
Vidljivost: 10 km
Cloud details: Oblačno 1737 m
2019/12/10 04:20 LATI 100420Z 17005KT 9999 OVC057 11/09 Q1007 NOSIG
LQBK - Banja Luka, Yugoslavia
Distance from station: SZ 426km
Ažurirano: 10/12/2019 05:00
Padavine, Oblačno
Padavine, Oblačno
 Pravac vetra SZ
Vetar: SZ 19 km/h
Temperatura: 6°C
Osećaj hladnoće: 3°C
Tačka rose: 6°C
Vlažnost: 100%
Pritisak: 1011 hPa
Pregled: Padavine
Oblaci: Oblačno
Vidljivost: 10 km
Cloud details: Pretežno oblačno 396 m
Oblačno 1067 m
2019/12/10 04:00 LQBK 100400Z 32010KT 9999 RA BKN013 OVC035 06/06 Q1011 NOSIG
 
LDOS - Osijek, Croatia
Distance from station: SSZ 360km
Ažurirano: 10/12/2019 05:00
Oblačno
Oblačno
 Pravac vetra SSZ
Vetar: SSZ 19 km/h
Temperatura: 6°C
Osećaj hladnoće: 3°C
Tačka rose: 5°C
Vlažnost: 93%
Pritisak: 1010 hPa
Oblaci: Oblačno
Vidljivost: 10 km
Cloud details: Pretežno oblačno 305 m
Oblačno 1219 m
2019/12/10 04:00 LDOS 100400Z 33010KT 9999 BKN010 OVC040 06/05 Q1010
LDDU - Dubrovnik-Cilipi, Croatia
Distance from station: JZ 352km
Ažurirano: 10/12/2019 05:00
Pretežno oblačno
Pretežno oblačno
 Pravac vetra I
Vetar: I 17 km/h
Temperatura: 11°C
Tačka rose: 9°C
Vlažnost: 88%
Pritisak: 1006 hPa
Oblaci: Pretežno oblačno
Vidljivost: 10 km
Cloud details: Few Clouds 1158 m
Pretežno oblačno 1737 m
2019/12/10 04:00 LDDU 100400Z 08009KT 9999 FEW038 BKN057 11/09 Q1006 TEMPO TSRA FEW020CB
LQMO - Mostar Airport, Bosnia-Herzegovina
Distance from station: Z 359km
Ažurirano: 10/12/2019 05:00
Slaba kiša, Pretežno oblačno
Slaba kiša, Pretežno oblačno
 Pravac vetra SZ
Vetar: SZ 19 km/h
Temperatura: 9°C
Osećaj hladnoće: 6°C
Tačka rose: 7°C
Vlažnost: 87%
Pritisak: 1006 hPa
Pregled: Slaba kiša
Oblaci: Pretežno oblačno
Vidljivost: 10 km
Cloud details: Few Clouds 914 m
Pretežno oblačno 1524 m
2019/12/10 04:00 LQMO 100400Z 31010KT 9999 -RA FEW030 BKN050 09/07 Q1006
 
LQSA - Sarajevo/Butmir, Yugoslavia
Distance from station: Z 311km
Ažurirano: 10/12/2019 05:00
Padavine, Pretežno oblačno
Padavine, Pretežno oblačno
 Pravac vetra SZ
Vetar: SZ 9 km/h
Temperatura: 6°C
Osećaj hladnoće: 4°C
Tačka rose: 6°C
Vlažnost: 100%
Pritisak: 1008 hPa
Pregled: Padavine
Oblaci: Pretežno oblačno
Vidljivost: 8 km
Cloud details: Delimično oblačno 762 m
Pretežno oblačno 1067 m
2019/12/10 04:00 LQSA 100400Z 32005KT 8000 RA SCT025 BKN035 06/06 Q1008
LDSP - Split/Kastel Sta, Croatia
Distance from station: Z 468km
Ažurirano: 10/12/2019 05:00
Few Clouds
Few Clouds
 Pravac vetra S
Vetar: S 11 km/h
Temperatura: 10°C
Osećaj hladnoće: 8°C
Tačka rose: 6°C
Vlažnost: 76%
Pritisak: 1006 hPa
Oblaci: Few Clouds
Vidljivost: 10 km
Cloud details: Few Clouds 2225 m
2019/12/10 04:00 LDSP 100400Z AUTO 35006KT 310V030 9999 FEW073/// 10/06 Q1006 NOSIG
LDZD - Zadar/Zemunik, Croatia
Distance from station: ZSZ 567km
Ažurirano: 10/12/2019 05:00
Delimično oblačno
Delimično oblačno
 Pravac vetra I
Vetar: I 6 km/h
Temperatura: 5°C
Tačka rose: 4°C
Vlažnost: 93%
Pritisak: 1008 hPa
Oblaci: Delimično oblačno
Vidljivost: 10 km
Cloud details: Few Clouds 1524 m
Delimično oblačno 2134 m
2019/12/10 04:00 LDZD 100400Z 08003KT 030V140 9999 FEW050 SCT070 05/04 Q1008 BECMG 06012KT
 
LDZA - Zagreb/Pleso, Croatia
Distance from station: SZ 555km
Ažurirano: 10/12/2019 05:00
Vedro
Vedro
 Pravac vetra ZJZ
Vetar: ZJZ 6 km/h
Temperatura: 5°C
Tačka rose: 3°C
Vlažnost: 87%
Pritisak: 1012 hPa
Pregled: Vedro
Vidljivost: greater than 10 km
2019/12/10 04:00 LDZA 100400Z 25003KT CAVOK 05/03 Q1012 NOSIG
LJCE - Cerklje, Slovenia
Distance from station: SZ 680km
Ažurirano: 10/12/2019 05:00
Delimično oblačno
Delimično oblačno
 Pravac vetra varies
Vetar: varies 6 km/h
Temperatura: 2°C
Tačka rose: 2°C
Vlažnost: 100%
Pritisak: 1013 hPa
Oblaci: Delimično oblačno
Vidljivost: 9 km
2019/12/10 04:00 LJCE 100400Z AUTO VRB03KT 9000 NSC 02/02 Q1013
LJMB - Maribor, Slovenia
Distance from station: SZ 616km
Ažurirano: 10/12/2019 05:00
Freezing fog, Oblačno
Freezing fog, Oblačno
 Pravac vetra SZ
Vetar: SZ 2 km/h
Temperatura: 0°C
Tačka rose: 0°C
Vlažnost: 100%
Pritisak: 1013 hPa
Pregled: Freezing Fog
Oblaci: Oblačno
Vidljivost: 0 km
Cloud details: Oblačno 61 m
2019/12/10 04:00 LJMB 100400Z AUTO 31001KT 0050 R32/0800N FZFG VV002 M00/M00 Q1013
 
LJLJ - Ljubljana/Brnik, Slovenia
Distance from station: SZ 671km
Ažurirano: 10/12/2019 05:00
Pretežno oblačno
Pretežno oblačno
 Pravac vetra varies
Vetar: varies 4 km/h
Temperatura: 0°C
Tačka rose: 0°C
Vlažnost: 100%
Pritisak: 1013 hPa
Oblaci: Pretežno oblačno
Vidljivost: 7 km
Cloud details: Pretežno oblačno 457 m
2019/12/10 04:00 LJLJ 100400Z VRB02KT 7000 BKN015 00/M00 Q1013 NOSIG
LDRI - Rijeka, Croatia
Distance from station: SZ 650km
Ažurirano: 10/12/2019 05:00
Few Clouds
Few Clouds
 Pravac vetra Z
Vetar: Z 13 km/h
Temperatura: 10°C
Osećaj hladnoće: 8°C
Tačka rose: 2°C
Vlažnost: 58%
Pritisak: 1010 hPa
Oblaci: Few Clouds
Vidljivost: 10 km
Cloud details: Few Clouds 1097 m
2019/12/10 04:00 LDRI 100400Z 28007KT 240V330 9999 FEW036 10/02 Q1010
LDPL - Pula, Croatia
Distance from station: ZSZ 686km
Ažurirano: 10/12/2019 05:00
Vedro
Vedro
 Pravac vetra SSI
Vetar: SSI 11 km/h
Temperatura: 9°C
Osećaj hladnoće: 7°C
Tačka rose: 3°C
Vlažnost: 66%
Pritisak: 1010 hPa
Pregled: Vedro
Vidljivost: greater than 10 km
2019/12/10 04:00 LDPL 100400Z 02006KT CAVOK 09/03 Q1010 TEMPO 06020G30KT
 
LJPZ - Portorož, Slovenia
Distance from station: ZSZ 720km
Ažurirano: 10/12/2019 05:00
Vedro
Vedro
 Pravac vetra varies
Vetar: varies 6 km/h
Temperatura: 3°C
Tačka rose: 2°C
Vlažnost: 93%
Pritisak: 1011 hPa
Oblaci: Vedro
Vidljivost: 10 km
2019/12/10 04:00 LJPZ 100400Z AUTO VRB03KT 9999 NCD 03/02 Q1011